Terminal Aerodrome Forecast
Issued by NWS Springfield, MO

Home | Current Version | Previous Version | Text Only | Print | Product List | Glossary On
Versions: 1 2 3 4 5 6 7 8 9 10 11 12 13 14 15 16 17 18
000
FTUS43 KSGF 240500
TAFSGF
TAF
KSGF 240522Z 2406/2506 15019G28KT P6SM SCT150 BKN200 WS018/19050KT
     FM241400 17020G30KT 6SM -SHRA BR VCTS BKN050CB OVC070
      TEMPO 2414/2418 4SM TSRA BR OVC040CB
     FM241800 21018G26KT 6SM -SHRA BR VCTS BKN040CB OVC080
      TEMPO 2418/2422 4SM TSRA BR BKN030CB
     FM242200 28014G23KT P6SM -SHRA VCTS OVC040CB
     FM250000 30011KT P6SM SCT080=

USA.gov is the U.S. government's official web portal to all federal, state and local government web resources and services.